sensor_id;sensor_type;location;lat;lon;timestamp;temperature;humidity
72484;DHT22;74199;52.014;5.430;2023-12-20T00:02:03;17.50;56.20
72484;DHT22;74199;52.014;5.430;2023-12-20T00:04:30;17.40;56.20
72484;DHT22;74199;52.014;5.430;2023-12-20T00:06:57;17.40;56.20
72484;DHT22;74199;52.014;5.430;2023-12-20T00:09:24;17.40;56.20
72484;DHT22;74199;52.014;5.430;2023-12-20T00:11:51;17.40;56.20
72484;DHT22;74199;52.014;5.430;2023-12-20T00:14:17;17.40;56.10
72484;DHT22;74199;52.014;5.430;2023-12-20T00:16:44;17.40;56.20
72484;DHT22;74199;52.014;5.430;2023-12-20T00:19:11;17.40;56.10
72484;DHT22;74199;52.014;5.430;2023-12-20T00:21:38;17.40;56.10
72484;DHT22;74199;52.014;5.430;2023-12-20T00:24:07;17.40;56.10
72484;DHT22;74199;52.014;5.430;2023-12-20T00:26:33;17.40;56.00
72484;DHT22;74199;52.014;5.430;2023-12-20T00:29:01;17.40;56.10
72484;DHT22;74199;52.014;5.430;2023-12-20T00:31:28;17.40;56.10
72484;DHT22;74199;52.014;5.430;2023-12-20T00:33:54;17.40;56.10
72484;DHT22;74199;52.014;5.430;2023-12-20T00:36:22;17.40;56.00
72484;DHT22;74199;52.014;5.430;2023-12-20T00:38:49;17.40;56.00
72484;DHT22;74199;52.014;5.430;2023-12-20T00:41:16;17.40;56.00
72484;DHT22;74199;52.014;5.430;2023-12-20T00:43:43;17.40;56.00
72484;DHT22;74199;52.014;5.430;2023-12-20T00:46:11;17.40;55.90
72484;DHT22;74199;52.014;5.430;2023-12-20T00:48:38;17.30;56.00
72484;DHT22;74199;52.014;5.430;2023-12-20T00:51:06;17.30;56.00
72484;DHT22;74199;52.014;5.430;2023-12-20T00:53:33;17.30;56.00
72484;DHT22;74199;52.014;5.430;2023-12-20T00:56:00;17.20;56.00
72484;DHT22;74199;52.014;5.430;2023-12-20T00:58:26;17.20;56.10
72484;DHT22;74199;52.014;5.430;2023-12-20T01:00:54;17.20;56.10
72484;DHT22;74199;52.014;5.430;2023-12-20T01:03:21;17.20;56.00
72484;DHT22;74199;52.014;5.430;2023-12-20T01:05:50;17.20;56.00
72484;DHT22;74199;52.014;5.430;2023-12-20T01:08:17;17.20;56.00
72484;DHT22;74199;52.014;5.430;2023-12-20T01:10:44;17.20;56.00
72484;DHT22;74199;52.014;5.430;2023-12-20T01:13:11;17.20;55.90
72484;DHT22;74199;52.014;5.430;2023-12-20T01:15:38;17.20;55.90
72484;DHT22;74199;52.014;5.430;2023-12-20T01:18:05;17.20;55.80
72484;DHT22;74199;52.014;5.430;2023-12-20T01:20:32;17.20;55.90
72484;DHT22;74199;52.014;5.430;2023-12-20T01:22:58;17.20;55.80
72484;DHT22;74199;52.014;5.430;2023-12-20T01:25:25;17.20;55.80
72484;DHT22;74199;52.014;5.430;2023-12-20T01:27:52;17.20;55.80
72484;DHT22;74199;52.014;5.430;2023-12-20T01:30:19;17.20;55.80
72484;DHT22;74199;52.014;5.430;2023-12-20T01:32:46;17.20;55.80
72484;DHT22;74199;52.014;5.430;2023-12-20T01:35:13;17.20;55.70
72484;DHT22;74199;52.014;5.430;2023-12-20T01:37:41;17.20;55.80
72484;DHT22;74199;52.014;5.430;2023-12-20T01:40:09;17.20;55.70
72484;DHT22;74199;52.014;5.430;2023-12-20T01:42:36;17.20;55.70
72484;DHT22;74199;52.014;5.430;2023-12-20T01:45:04;17.20;55.70
72484;DHT22;74199;52.014;5.430;2023-12-20T01:47:31;17.20;55.60
72484;DHT22;74199;52.014;5.430;2023-12-20T01:49:58;17.20;55.60
72484;DHT22;74199;52.014;5.430;2023-12-20T01:52:26;17.20;55.60
72484;DHT22;74199;52.014;5.430;2023-12-20T01:54:54;17.20;55.60
72484;DHT22;74199;52.014;5.430;2023-12-20T01:57:27;17.20;55.60
72484;DHT22;74199;52.014;5.430;2023-12-20T01:59:55;17.20;55.50
72484;DHT22;74199;52.014;5.430;2023-12-20T02:02:22;17.20;55.50
72484;DHT22;74199;52.014;5.430;2023-12-20T02:04:49;17.20;55.50
72484;DHT22;74199;52.014;5.430;2023-12-20T02:07:18;17.20;55.60
72484;DHT22;74199;52.014;5.430;2023-12-20T02:09:46;17.20;55.50
72484;DHT22;74199;52.014;5.430;2023-12-20T02:12:13;17.20;55.50
72484;DHT22;74199;52.014;5.430;2023-12-20T02:14:40;17.20;55.50
72484;DHT22;74199;52.014;5.430;2023-12-20T02:17:07;17.20;55.50
72484;DHT22;74199;52.014;5.430;2023-12-20T02:19:34;17.20;55.50
72484;DHT22;74199;52.014;5.430;2023-12-20T02:22:06;17.20;55.40
72484;DHT22;74199;52.014;5.430;2023-12-20T02:24:33;17.20;55.40
72484;DHT22;74199;52.014;5.430;2023-12-20T02:27:00;17.20;55.40
72484;DHT22;74199;52.014;5.430;2023-12-20T02:29:27;17.20;55.40
72484;DHT22;74199;52.014;5.430;2023-12-20T02:31:54;17.20;55.40
72484;DHT22;74199;52.014;5.430;2023-12-20T02:34:21;17.20;55.30
72484;DHT22;74199;52.014;5.430;2023-12-20T02:36:48;17.20;55.30
72484;DHT22;74199;52.014;5.430;2023-12-20T02:39:15;17.20;55.30
72484;DHT22;74199;52.014;5.430;2023-12-20T02:41:42;17.20;55.40
72484;DHT22;74199;52.014;5.430;2023-12-20T02:44:09;17.20;55.40
72484;DHT22;74199;52.014;5.430;2023-12-20T02:46:36;17.20;55.40
72484;DHT22;74199;52.014;5.430;2023-12-20T02:49:03;17.20;55.20
72484;DHT22;74199;52.014;5.430;2023-12-20T02:51:30;17.20;55.30
72484;DHT22;74199;52.014;5.430;2023-12-20T02:53:57;17.20;55.30
72484;DHT22;74199;52.014;5.430;2023-12-20T02:56:23;17.20;55.20
72484;DHT22;74199;52.014;5.430;2023-12-20T02:58:50;17.20;55.20
72484;DHT22;74199;52.014;5.430;2023-12-20T03:01:18;17.20;55.30
72484;DHT22;74199;52.014;5.430;2023-12-20T03:03:45;17.10;55.20
72484;DHT22;74199;52.014;5.430;2023-12-20T03:06:17;17.10;55.20
72484;DHT22;74199;52.014;5.430;2023-12-20T03:08:44;17.10;55.30
72484;DHT22;74199;52.014;5.430;2023-12-20T03:11:11;17.10;55.30
72484;DHT22;74199;52.014;5.430;2023-12-20T03:13:38;17.10;55.30
72484;DHT22;74199;52.014;5.430;2023-12-20T03:16:12;17.10;55.30
72484;DHT22;74199;52.014;5.430;2023-12-20T03:18:39;17.10;55.40
72484;DHT22;74199;52.014;5.430;2023-12-20T03:21:07;17.10;55.30
72484;DHT22;74199;52.014;5.430;2023-12-20T03:23:34;17.10;55.40
72484;DHT22;74199;52.014;5.430;2023-12-20T03:26:01;17.10;55.40
72484;DHT22;74199;52.014;5.430;2023-12-20T03:28:28;17.00;55.30
72484;DHT22;74199;52.014;5.430;2023-12-20T03:30:55;17.00;55.40
72484;DHT22;74199;52.014;5.430;2023-12-20T03:33:22;17.10;55.40
72484;DHT22;74199;52.014;5.430;2023-12-20T03:35:49;17.10;55.40
72484;DHT22;74199;52.014;5.430;2023-12-20T03:38:16;17.00;55.40
72484;DHT22;74199;52.014;5.430;2023-12-20T03:40:43;17.00;55.40
72484;DHT22;74199;52.014;5.430;2023-12-20T03:43:10;17.00;55.40
72484;DHT22;74199;52.014;5.430;2023-12-20T03:45:37;17.10;55.40
72484;DHT22;74199;52.014;5.430;2023-12-20T03:48:04;17.00;55.30
72484;DHT22;74199;52.014;5.430;2023-12-20T03:50:32;17.00;55.20
72484;DHT22;74199;52.014;5.430;2023-12-20T03:52:59;17.10;55.30
72484;DHT22;74199;52.014;5.430;2023-12-20T03:55:26;17.10;55.20
72484;DHT22;74199;52.014;5.430;2023-12-20T03:57:53;17.10;55.20
72484;DHT22;74199;52.014;5.430;2023-12-20T04:00:20;17.10;55.20
72484;DHT22;74199;52.014;5.430;2023-12-20T04:02:47;17.10;55.10
72484;DHT22;74199;52.014;5.430;2023-12-20T04:05:14;17.10;55.00
72484;DHT22;74199;52.014;5.430;2023-12-20T04:07:41;17.10;55.00
72484;DHT22;74199;52.014;5.430;2023-12-20T04:10:09;17.10;55.00
72484;DHT22;74199;52.014;5.430;2023-12-20T04:12:36;17.10;54.90
72484;DHT22;74199;52.014;5.430;2023-12-20T04:15:03;17.10;54.90
72484;DHT22;74199;52.014;5.430;2023-12-20T04:17:36;17.20;54.80
72484;DHT22;74199;52.014;5.430;2023-12-20T04:20:03;17.10;54.80
72484;DHT22;74199;52.014;5.430;2023-12-20T04:22:31;17.10;54.80
72484;DHT22;74199;52.014;5.430;2023-12-20T04:24:58;17.10;54.80
72484;DHT22;74199;52.014;5.430;2023-12-20T04:27:25;17.10;54.80
72484;DHT22;74199;52.014;5.430;2023-12-20T04:29:52;17.10;54.70
72484;DHT22;74199;52.014;5.430;2023-12-20T04:32:19;17.20;54.70
72484;DHT22;74199;52.014;5.430;2023-12-20T04:34:45;17.20;54.70
72484;DHT22;74199;52.014;5.430;2023-12-20T04:37:12;17.20;54.60
72484;DHT22;74199;52.014;5.430;2023-12-20T04:39:39;17.20;54.60
72484;DHT22;74199;52.014;5.430;2023-12-20T04:42:08;17.20;54.60
72484;DHT22;74199;52.014;5.430;2023-12-20T04:44:35;17.20;54.50
72484;DHT22;74199;52.014;5.430;2023-12-20T04:47:02;17.20;54.40
72484;DHT22;74199;52.014;5.430;2023-12-20T04:49:29;17.20;54.40
72484;DHT22;74199;52.014;5.430;2023-12-20T04:51:57;17.20;54.40
72484;DHT22;74199;52.014;5.430;2023-12-20T04:54:24;17.20;54.30
72484;DHT22;74199;52.014;5.430;2023-12-20T04:56:50;17.20;54.30
72484;DHT22;74199;52.014;5.430;2023-12-20T04:59:17;17.20;54.20
72484;DHT22;74199;52.014;5.430;2023-12-20T05:01:45;17.20;54.20
72484;DHT22;74199;52.014;5.430;2023-12-20T05:04:12;17.20;54.20
72484;DHT22;74199;52.014;5.430;2023-12-20T05:06:39;17.20;54.20
72484;DHT22;74199;52.014;5.430;2023-12-20T05:09:06;17.20;54.10
72484;DHT22;74199;52.014;5.430;2023-12-20T05:11:33;17.20;54.10
72484;DHT22;74199;52.014;5.430;2023-12-20T05:14:00;17.20;53.90
72484;DHT22;74199;52.014;5.430;2023-12-20T05:16:27;17.20;54.00
72484;DHT22;74199;52.014;5.430;2023-12-20T05:18:54;17.30;53.90
72484;DHT22;74199;52.014;5.430;2023-12-20T05:21:21;17.30;53.90
72484;DHT22;74199;52.014;5.430;2023-12-20T05:23:48;17.30;53.90
72484;DHT22;74199;52.014;5.430;2023-12-20T05:26:15;17.30;53.80
72484;DHT22;74199;52.014;5.430;2023-12-20T05:28:42;17.30;53.70
72484;DHT22;74199;52.014;5.430;2023-12-20T05:31:08;17.30;53.70
72484;DHT22;74199;52.014;5.430;2023-12-20T05:33:36;17.30;53.70
72484;DHT22;74199;52.014;5.430;2023-12-20T05:36:03;17.30;53.80
72484;DHT22;74199;52.014;5.430;2023-12-20T05:38:30;17.30;53.70
72484;DHT22;74199;52.014;5.430;2023-12-20T05:40:57;17.30;53.70
72484;DHT22;74199;52.014;5.430;2023-12-20T05:43:24;17.30;53.70
72484;DHT22;74199;52.014;5.430;2023-12-20T05:45:51;17.30;53.60
72484;DHT22;74199;52.014;5.430;2023-12-20T05:48:18;17.40;53.60
72484;DHT22;74199;52.014;5.430;2023-12-20T05:50:45;17.40;53.50
72484;DHT22;74199;52.014;5.430;2023-12-20T05:53:12;17.40;53.50
72484;DHT22;74199;52.014;5.430;2023-12-20T05:55:39;17.40;53.60
72484;DHT22;74199;52.014;5.430;2023-12-20T05:58:06;17.40;53.50
72484;DHT22;74199;52.014;5.430;2023-12-20T06:00:33;17.40;53.50
72484;DHT22;74199;52.014;5.430;2023-12-20T06:03:00;17.40;53.50
72484;DHT22;74199;52.014;5.430;2023-12-20T06:05:27;17.40;53.50
72484;DHT22;74199;52.014;5.430;2023-12-20T06:07:54;17.40;53.40
72484;DHT22;74199;52.014;5.430;2023-12-20T06:10:23;17.40;53.40
72484;DHT22;74199;52.014;5.430;2023-12-20T06:12:50;17.40;53.40
72484;DHT22;74199;52.014;5.430;2023-12-20T06:15:18;17.40;53.40
72484;DHT22;74199;52.014;5.430;2023-12-20T06:17:45;17.40;53.40
72484;DHT22;74199;52.014;5.430;2023-12-20T06:20:14;17.40;53.30
72484;DHT22;74199;52.014;5.430;2023-12-20T06:22:42;17.40;53.20
72484;DHT22;74199;52.014;5.430;2023-12-20T06:25:08;17.40;53.30
72484;DHT22;74199;52.014;5.430;2023-12-20T06:27:36;17.40;53.30
72484;DHT22;74199;52.014;5.430;2023-12-20T06:30:03;17.40;53.30
72484;DHT22;74199;52.014;5.430;2023-12-20T06:32:30;17.40;53.20
72484;DHT22;74199;52.014;5.430;2023-12-20T06:34:57;17.40;53.20
72484;DHT22;74199;52.014;5.430;2023-12-20T06:37:24;17.40;53.20
72484;DHT22;74199;52.014;5.430;2023-12-20T06:39:51;17.40;53.20
72484;DHT22;74199;52.014;5.430;2023-12-20T06:42:18;17.40;53.20
72484;DHT22;74199;52.014;5.430;2023-12-20T06:44:45;17.40;53.10
72484;DHT22;74199;52.014;5.430;2023-12-20T06:47:12;17.40;53.10
72484;DHT22;74199;52.014;5.430;2023-12-20T06:49:40;17.50;53.20
72484;DHT22;74199;52.014;5.430;2023-12-20T06:52:08;17.40;53.20
72484;DHT22;74199;52.014;5.430;2023-12-20T06:54:35;17.50;53.20
72484;DHT22;74199;52.014;5.430;2023-12-20T06:57:02;17.50;53.10
72484;DHT22;74199;52.014;5.430;2023-12-20T06:59:29;17.50;53.10
72484;DHT22;74199;52.014;5.430;2023-12-20T07:01:56;17.50;53.20
72484;DHT22;74199;52.014;5.430;2023-12-20T07:04:24;17.50;53.20
72484;DHT22;74199;52.014;5.430;2023-12-20T07:06:51;17.50;53.20
72484;DHT22;74199;52.014;5.430;2023-12-20T07:09:19;17.50;53.20
72484;DHT22;74199;52.014;5.430;2023-12-20T07:11:45;17.50;53.30
72484;DHT22;74199;52.014;5.430;2023-12-20T07:14:12;17.50;53.30
72484;DHT22;74199;52.014;5.430;2023-12-20T07:16:40;17.50;53.30
72484;DHT22;74199;52.014;5.430;2023-12-20T07:19:07;17.50;53.30
72484;DHT22;74199;52.014;5.430;2023-12-20T07:21:34;17.50;53.40
72484;DHT22;74199;52.014;5.430;2023-12-20T07:24:01;17.50;53.30
72484;DHT22;74199;52.014;5.430;2023-12-20T07:26:28;17.50;53.40
72484;DHT22;74199;52.014;5.430;2023-12-20T07:28:55;17.50;53.30
72484;DHT22;74199;52.014;5.430;2023-12-20T07:31:22;17.50;53.30
72484;DHT22;74199;52.014;5.430;2023-12-20T07:33:50;17.50;53.30
72484;DHT22;74199;52.014;5.430;2023-12-20T07:36:19;17.50;53.40
72484;DHT22;74199;52.014;5.430;2023-12-20T07:38:46;17.50;53.40
72484;DHT22;74199;52.014;5.430;2023-12-20T07:41:13;17.50;53.40
72484;DHT22;74199;52.014;5.430;2023-12-20T07:43:42;17.50;53.40
72484;DHT22;74199;52.014;5.430;2023-12-20T07:46:09;17.50;53.40
72484;DHT22;74199;52.014;5.430;2023-12-20T07:48:36;17.50;53.40
72484;DHT22;74199;52.014;5.430;2023-12-20T07:51:04;17.50;53.50
72484;DHT22;74199;52.014;5.430;2023-12-20T07:53:33;17.50;53.50
72484;DHT22;74199;52.014;5.430;2023-12-20T07:55:59;17.50;53.40
72484;DHT22;74199;52.014;5.430;2023-12-20T07:58:26;17.50;53.50
72484;DHT22;74199;52.014;5.430;2023-12-20T08:01:11;17.50;53.50
72484;DHT22;74199;52.014;5.430;2023-12-20T08:03:38;17.50;53.50
72484;DHT22;74199;52.014;5.430;2023-12-20T08:06:06;17.50;53.50
72484;DHT22;74199;52.014;5.430;2023-12-20T08:08:32;17.50;53.50
72484;DHT22;74199;52.014;5.430;2023-12-20T08:10:59;17.50;53.50
72484;DHT22;74199;52.014;5.430;2023-12-20T08:13:27;17.50;53.50
72484;DHT22;74199;52.014;5.430;2023-12-20T08:15:54;17.50;53.50
72484;DHT22;74199;52.014;5.430;2023-12-20T08:18:22;17.50;53.60
72484;DHT22;74199;52.014;5.430;2023-12-20T08:20:50;17.50;53.60
72484;DHT22;74199;52.014;5.430;2023-12-20T08:23:19;17.50;53.70
72484;DHT22;74199;52.014;5.430;2023-12-20T08:25:53;17.50;53.60
72484;DHT22;74199;52.014;5.430;2023-12-20T08:28:20;17.50;53.50
72484;DHT22;74199;52.014;5.430;2023-12-20T08:30:47;17.60;53.40
72484;DHT22;74199;52.014;5.430;2023-12-20T08:33:14;17.50;53.40
72484;DHT22;74199;52.014;5.430;2023-12-20T08:35:41;17.50;53.30
72484;DHT22;74199;52.014;5.430;2023-12-20T08:38:08;17.60;53.40
72484;DHT22;74199;52.014;5.430;2023-12-20T08:40:35;17.60;53.40
72484;DHT22;74199;52.014;5.430;2023-12-20T08:43:02;17.60;53.30
72484;DHT22;74199;52.014;5.430;2023-12-20T08:45:29;17.60;53.30
72484;DHT22;74199;52.014;5.430;2023-12-20T08:47:56;17.60;53.20
72484;DHT22;74199;52.014;5.430;2023-12-20T08:50:27;17.60;53.30
72484;DHT22;74199;52.014;5.430;2023-12-20T08:52:54;17.60;53.40
72484;DHT22;74199;52.014;5.430;2023-12-20T08:55:21;17.60;53.40
72484;DHT22;74199;52.014;5.430;2023-12-20T08:57:49;17.60;53.40
72484;DHT22;74199;52.014;5.430;2023-12-20T09:00:17;17.60;53.50
72484;DHT22;74199;52.014;5.430;2023-12-20T09:02:47;17.60;53.60
72484;DHT22;74199;52.014;5.430;2023-12-20T09:05:14;17.60;53.60
72484;DHT22;74199;52.014;5.430;2023-12-20T09:07:41;17.60;53.70
72484;DHT22;74199;52.014;5.430;2023-12-20T09:10:08;17.60;53.70
72484;DHT22;74199;52.014;5.430;2023-12-20T09:12:35;17.60;53.60
72484;DHT22;74199;52.014;5.430;2023-12-20T09:15:04;17.60;53.70
72484;DHT22;74199;52.014;5.430;2023-12-20T09:17:32;17.60;53.70
72484;DHT22;74199;52.014;5.430;2023-12-20T09:20:03;17.60;53.70
72484;DHT22;74199;52.014;5.430;2023-12-20T09:22:32;17.60;53.60
72484;DHT22;74199;52.014;5.430;2023-12-20T09:25:00;17.60;53.60
72484;DHT22;74199;52.014;5.430;2023-12-20T09:27:28;17.60;53.70
72484;DHT22;74199;52.014;5.430;2023-12-20T09:29:55;17.60;53.70
72484;DHT22;74199;52.014;5.430;2023-12-20T09:32:22;17.60;53.80
72484;DHT22;74199;52.014;5.430;2023-12-20T09:34:49;17.60;53.70
72484;DHT22;74199;52.014;5.430;2023-12-20T09:37:16;17.60;53.70
72484;DHT22;74199;52.014;5.430;2023-12-20T09:39:43;17.60;53.80
72484;DHT22;74199;52.014;5.430;2023-12-20T09:42:11;17.60;53.80
72484;DHT22;74199;52.014;5.430;2023-12-20T09:44:43;17.70;53.90
72484;DHT22;74199;52.014;5.430;2023-12-20T09:47:15;17.70;53.90
72484;DHT22;74199;52.014;5.430;2023-12-20T09:49:43;17.70;53.90
72484;DHT22;74199;52.014;5.430;2023-12-20T09:52:11;17.70;53.90
72484;DHT22;74199;52.014;5.430;2023-12-20T09:54:39;17.70;53.90
72484;DHT22;74199;52.014;5.430;2023-12-20T09:57:07;17.70;53.80
72484;DHT22;74199;52.014;5.430;2023-12-20T09:59:35;17.80;53.80
72484;DHT22;74199;52.014;5.430;2023-12-20T10:02:03;17.80;53.90
72484;DHT22;74199;52.014;5.430;2023-12-20T10:04:36;17.80;53.80
72484;DHT22;74199;52.014;5.430;2023-12-20T10:07:03;17.80;53.90
72484;DHT22;74199;52.014;5.430;2023-12-20T10:09:33;17.80;53.80
72484;DHT22;74199;52.014;5.430;2023-12-20T10:12:01;17.80;53.80
72484;DHT22;74199;52.014;5.430;2023-12-20T10:14:28;17.80;53.80
72484;DHT22;74199;52.014;5.430;2023-12-20T10:17:02;17.80;53.70
72484;DHT22;74199;52.014;5.430;2023-12-20T10:19:29;17.80;53.70
72484;DHT22;74199;52.014;5.430;2023-12-20T10:22:01;17.80;53.70
72484;DHT22;74199;52.014;5.430;2023-12-20T10:24:28;17.80;53.70
72484;DHT22;74199;52.014;5.430;2023-12-20T10:27:03;17.80;53.60
72484;DHT22;74199;52.014;5.430;2023-12-20T10:29:37;17.90;53.70
72484;DHT22;74199;52.014;5.430;2023-12-20T10:32:25;17.90;53.70
72484;DHT22;74199;52.014;5.430;2023-12-20T10:34:53;17.90;53.60
72484;DHT22;74199;52.014;5.430;2023-12-20T10:37:21;17.90;53.50
72484;DHT22;74199;52.014;5.430;2023-12-20T10:39:50;17.90;53.50
72484;DHT22;74199;52.014;5.430;2023-12-20T10:42:21;17.90;53.40
72484;DHT22;74199;52.014;5.430;2023-12-20T10:44:49;17.80;53.30
72484;DHT22;74199;52.014;5.430;2023-12-20T10:47:18;17.90;53.30
72484;DHT22;74199;52.014;5.430;2023-12-20T10:49:46;17.90;53.20
72484;DHT22;74199;52.014;5.430;2023-12-20T10:52:13;17.80;53.20
72484;DHT22;74199;52.014;5.430;2023-12-20T10:54:40;17.80;53.10
72484;DHT22;74199;52.014;5.430;2023-12-20T10:57:08;17.80;53.20
72484;DHT22;74199;52.014;5.430;2023-12-20T10:59:37;17.80;53.10
72484;DHT22;74199;52.014;5.430;2023-12-20T11:02:05;17.80;53.10
72484;DHT22;74199;52.014;5.430;2023-12-20T11:04:50;17.80;53.10
72484;DHT22;74199;52.014;5.430;2023-12-20T11:07:25;17.90;53.00
72484;DHT22;74199;52.014;5.430;2023-12-20T11:10:03;17.80;53.00
72484;DHT22;74199;52.014;5.430;2023-12-20T11:12:44;17.80;53.00
72484;DHT22;74199;52.014;5.430;2023-12-20T11:15:14;17.80;53.00
72484;DHT22;74199;52.014;5.430;2023-12-20T11:17:45;17.90;53.10
72484;DHT22;74199;52.014;5.430;2023-12-20T11:20:18;17.90;53.00
72484;DHT22;74199;52.014;5.430;2023-12-20T11:22:53;17.90;53.00
72484;DHT22;74199;52.014;5.430;2023-12-20T11:25:20;17.90;52.90
72484;DHT22;74199;52.014;5.430;2023-12-20T11:28:07;17.90;53.00
72484;DHT22;74199;52.014;5.430;2023-12-20T11:31:02;17.90;52.90
72484;DHT22;74199;52.014;5.430;2023-12-20T11:33:37;17.90;53.10
72484;DHT22;74199;52.014;5.430;2023-12-20T11:36:13;17.90;53.10
72484;DHT22;74199;52.014;5.430;2023-12-20T11:38:57;17.90;53.10
72484;DHT22;74199;52.014;5.430;2023-12-20T11:41:25;17.90;53.10
72484;DHT22;74199;52.014;5.430;2023-12-20T11:43:53;17.90;53.00
72484;DHT22;74199;52.014;5.430;2023-12-20T11:46:20;17.90;53.00
72484;DHT22;74199;52.014;5.430;2023-12-20T11:48:48;17.90;52.90
72484;DHT22;74199;52.014;5.430;2023-12-20T11:51:15;17.90;52.90
72484;DHT22;74199;52.014;5.430;2023-12-20T11:53:42;17.90;52.80
72484;DHT22;74199;52.014;5.430;2023-12-20T11:56:10;17.90;52.80
72484;DHT22;74199;52.014;5.430;2023-12-20T11:58:37;17.90;52.80
72484;DHT22;74199;52.014;5.430;2023-12-20T12:01:05;17.90;52.70
72484;DHT22;74199;52.014;5.430;2023-12-20T12:03:35;17.90;52.70
72484;DHT22;74199;52.014;5.430;2023-12-20T12:06:02;17.90;52.70
72484;DHT22;74199;52.014;5.430;2023-12-20T12:08:32;17.90;52.60
72484;DHT22;74199;52.014;5.430;2023-12-20T12:10:59;17.90;52.70
72484;DHT22;74199;52.014;5.430;2023-12-20T12:13:26;18.00;52.60
72484;DHT22;74199;52.014;5.430;2023-12-20T12:15:54;18.00;52.50
72484;DHT22;74199;52.014;5.430;2023-12-20T12:18:21;18.00;52.50
72484;DHT22;74199;52.014;5.430;2023-12-20T12:20:49;17.90;52.50
72484;DHT22;74199;52.014;5.430;2023-12-20T12:23:23;18.00;52.40
72484;DHT22;74199;52.014;5.430;2023-12-20T12:25:54;18.00;52.40
72484;DHT22;74199;52.014;5.430;2023-12-20T12:28:26;17.90;52.50
72484;DHT22;74199;52.014;5.430;2023-12-20T12:30:58;18.00;52.50
72484;DHT22;74199;52.014;5.430;2023-12-20T12:33:26;18.00;52.40
72484;DHT22;74199;52.014;5.430;2023-12-20T12:35:53;18.00;52.40
72484;DHT22;74199;52.014;5.430;2023-12-20T12:38:24;18.00;52.50
72484;DHT22;74199;52.014;5.430;2023-12-20T12:40:51;18.00;52.50
72484;DHT22;74199;52.014;5.430;2023-12-20T12:43:20;18.00;52.60
72484;DHT22;74199;52.014;5.430;2023-12-20T12:45:49;18.00;52.60
72484;DHT22;74199;52.014;5.430;2023-12-20T12:48:16;18.00;52.50
72484;DHT22;74199;52.014;5.430;2023-12-20T12:50:45;18.00;52.50
72484;DHT22;74199;52.014;5.430;2023-12-20T12:53:13;18.00;52.40
72484;DHT22;74199;52.014;5.430;2023-12-20T12:55:40;18.00;52.40
72484;DHT22;74199;52.014;5.430;2023-12-20T12:58:07;18.00;52.40
72484;DHT22;74199;52.014;5.430;2023-12-20T13:00:34;18.00;52.40
72484;DHT22;74199;52.014;5.430;2023-12-20T13:03:01;18.00;52.30
72484;DHT22;74199;52.014;5.430;2023-12-20T13:05:28;18.00;52.30
72484;DHT22;74199;52.014;5.430;2023-12-20T13:07:55;18.00;52.40
72484;DHT22;74199;52.014;5.430;2023-12-20T13:10:23;17.90;52.30
72484;DHT22;74199;52.014;5.430;2023-12-20T13:12:50;18.00;52.30
72484;DHT22;74199;52.014;5.430;2023-12-20T13:15:17;18.00;52.20
72484;DHT22;74199;52.014;5.430;2023-12-20T13:17:45;18.00;52.30
72484;DHT22;74199;52.014;5.430;2023-12-20T13:20:13;18.00;52.30
72484;DHT22;74199;52.014;5.430;2023-12-20T13:22:40;18.00;52.40
72484;DHT22;74199;52.014;5.430;2023-12-20T13:25:07;17.90;52.30
72484;DHT22;74199;52.014;5.430;2023-12-20T13:27:35;17.90;52.50
72484;DHT22;74199;52.014;5.430;2023-12-20T13:30:02;17.90;52.50
72484;DHT22;74199;52.014;5.430;2023-12-20T13:32:30;17.80;52.50
72484;DHT22;74199;52.014;5.430;2023-12-20T13:34:58;17.80;52.70
72484;DHT22;74199;52.014;5.430;2023-12-20T13:37:25;17.80;52.60
72484;DHT22;74199;52.014;5.430;2023-12-20T13:39:52;17.80;52.50
72484;DHT22;74199;52.014;5.430;2023-12-20T13:42:19;17.80;52.50
72484;DHT22;74199;52.014;5.430;2023-12-20T13:44:47;17.70;52.50
72484;DHT22;74199;52.014;5.430;2023-12-20T13:47:14;17.70;52.50
72484;DHT22;74199;52.014;5.430;2023-12-20T13:49:41;17.70;52.40
72484;DHT22;74199;52.014;5.430;2023-12-20T13:52:08;17.70;52.40
72484;DHT22;74199;52.014;5.430;2023-12-20T13:54:34;17.70;52.50
72484;DHT22;74199;52.014;5.430;2023-12-20T13:57:01;17.70;52.40
72484;DHT22;74199;52.014;5.430;2023-12-20T13:59:42;17.70;52.40
72484;DHT22;74199;52.014;5.430;2023-12-20T14:02:09;17.70;52.30
72484;DHT22;74199;52.014;5.430;2023-12-20T14:04:36;17.60;52.30
72484;DHT22;74199;52.014;5.430;2023-12-20T14:07:10;17.70;52.30
72484;DHT22;74199;52.014;5.430;2023-12-20T14:09:40;17.60;52.30
72484;DHT22;74199;52.014;5.430;2023-12-20T14:12:13;17.60;52.40
72484;DHT22;74199;52.014;5.430;2023-12-20T14:14:40;17.70;52.50
72484;DHT22;74199;52.014;5.430;2023-12-20T14:17:07;17.70;52.70
72484;DHT22;74199;52.014;5.430;2023-12-20T14:19:34;17.70;52.60
72484;DHT22;74199;52.014;5.430;2023-12-20T14:22:01;17.70;52.60
72484;DHT22;74199;52.014;5.430;2023-12-20T14:24:28;17.70;52.50
72484;DHT22;74199;52.014;5.430;2023-12-20T14:26:55;17.70;52.50
72484;DHT22;74199;52.014;5.430;2023-12-20T14:29:22;17.60;52.40
72484;DHT22;74199;52.014;5.430;2023-12-20T14:31:53;17.60;52.40
72484;DHT22;74199;52.014;5.430;2023-12-20T14:34:20;17.70;52.40
72484;DHT22;74199;52.014;5.430;2023-12-20T14:36:47;17.60;52.40
72484;DHT22;74199;52.014;5.430;2023-12-20T14:39:14;17.60;52.50
72484;DHT22;74199;52.014;5.430;2023-12-20T14:41:42;17.60;52.60
72484;DHT22;74199;52.014;5.430;2023-12-20T14:44:09;17.60;53.00
72484;DHT22;74199;52.014;5.430;2023-12-20T14:46:36;17.60;53.10
72484;DHT22;74199;52.014;5.430;2023-12-20T14:49:06;17.60;53.10
72484;DHT22;74199;52.014;5.430;2023-12-20T14:51:34;17.60;53.10
72484;DHT22;74199;52.014;5.430;2023-12-20T14:54:02;17.60;53.20
72484;DHT22;74199;52.014;5.430;2023-12-20T14:56:29;17.60;53.20
72484;DHT22;74199;52.014;5.430;2023-12-20T14:58:56;17.60;53.20
72484;DHT22;74199;52.014;5.430;2023-12-20T15:01:26;17.70;53.20
72484;DHT22;74199;52.014;5.430;2023-12-20T15:03:54;17.60;53.10
72484;DHT22;74199;52.014;5.430;2023-12-20T15:06:22;17.60;53.00
72484;DHT22;74199;52.014;5.430;2023-12-20T15:08:49;17.60;53.10
72484;DHT22;74199;52.014;5.430;2023-12-20T15:11:18;17.60;53.00
72484;DHT22;74199;52.014;5.430;2023-12-20T15:13:45;17.60;53.20
72484;DHT22;74199;52.014;5.430;2023-12-20T15:16:19;17.60;53.20
72484;DHT22;74199;52.014;5.430;2023-12-20T15:18:46;17.60;53.10
72484;DHT22;74199;52.014;5.430;2023-12-20T15:21:14;17.60;53.20
72484;DHT22;74199;52.014;5.430;2023-12-20T15:23:41;17.60;53.30
72484;DHT22;74199;52.014;5.430;2023-12-20T15:26:19;17.60;53.30
72484;DHT22;74199;52.014;5.430;2023-12-20T15:28:46;17.60;53.30
72484;DHT22;74199;52.014;5.430;2023-12-20T15:31:13;17.60;53.30
72484;DHT22;74199;52.014;5.430;2023-12-20T15:33:40;17.60;53.40
72484;DHT22;74199;52.014;5.430;2023-12-20T15:36:08;17.60;53.40